Time;durP1;ratioP1;P1;durP2;ratioP2;P2;SDS_P1;SDS_P2;PMS_P1;PMS_P2;Temp;Humidity;BMP_temperature;BMP_pressure;BME280_temperature;BME280_humidity;BME280_pressure;Samples;Min_cycle;Max_cycle;Signal;HPM_P1;HPM_P2
2024/01/27 00:02:21;;;;;;;33.57;6.47;;;;;;;;;;5048842;28;20044;-64
2024/01/27 00:04:48;;;;;;;43.30;8.03;;;;;;;;;;5049245;28;20040;-64
2024/01/27 00:07:14;;;;;;;31.20;6.97;;;;;;;;;;5048388;28;20048;-64
2024/01/27 00:09:40;;;;;;;24.60;7.37;;;;;;;;;;5044373;28;20741;-64
2024/01/27 00:12:07;;;;;;;30.70;6.03;;;;;;;;;;5034093;28;20037;-64
2024/01/27 00:14:34;;;;;;;33.00;6.57;;;;;;;;;;5045756;28;20287;-64
2024/01/27 00:17:00;;;;;;;28.50;6.60;;;;;;;;;;5048931;28;20498;-64
2024/01/27 00:19:26;;;;;;;43.00;7.33;;;;;;;;;;5047767;28;20307;-64
2024/01/27 00:21:52;;;;;;;36.50;7.30;;;;;;;;;;5047971;28;20481;-64
2024/01/27 00:24:18;;;;;;;35.90;7.63;;;;;;;;;;5047687;28;20045;-64
2024/01/27 00:26:44;;;;;;;37.20;8.13;;;;;;;;;;5047568;28;20048;-64
2024/01/27 00:29:10;;;;;;;25.97;6.20;;;;;;;;;;5048431;28;20080;-64
2024/01/27 00:31:36;;;;;;;25.50;5.63;;;;;;;;;;5047848;28;20053;-64
2024/01/27 00:34:02;;;;;;;34.10;5.37;;;;;;;;;;5047542;28;20389;-66
2024/01/27 00:36:28;;;;;;;33.30;5.77;;;;;;;;;;5048305;28;20049;-64
2024/01/27 00:38:54;;;;;;;30.33;5.70;;;;;;;;;;5048096;28;20052;-64
2024/01/27 00:41:20;;;;;;;36.50;6.17;;;;;;;;;;5047588;28;20048;-64
2024/01/27 00:43:46;;;;;;;23.03;5.50;;;;;;;;;;5047488;28;20457;-64
2024/01/27 00:46:12;;;;;;;32.03;5.67;;;;;;;;;;5046160;28;20224;-64
2024/01/27 00:48:38;;;;;;;32.00;6.30;;;;;;;;;;5047693;28;20482;-64
2024/01/27 00:51:04;;;;;;;37.60;6.60;;;;;;;;;;5047545;28;20324;-64
2024/01/27 00:53:30;;;;;;;26.43;6.90;;;;;;;;;;5046686;28;20649;-64
2024/01/27 00:55:56;;;;;;;29.17;5.70;;;;;;;;;;5047568;28;20052;-64
2024/01/27 00:58:22;;;;;;;32.00;5.50;;;;;;;;;;5047620;28;20466;-64
2024/01/27 01:00:48;;;;;;;19.83;4.80;;;;;;;;;;5047623;28;20080;-64
2024/01/27 01:03:14;;;;;;;29.13;7.60;;;;;;;;;;5048034;28;20049;-64
2024/01/27 01:05:40;;;;;;;22.37;6.57;;;;;;;;;;5047709;28;20143;-64
2024/01/27 01:08:06;;;;;;;37.60;6.57;;;;;;;;;;5048224;28;20784;-64
2024/01/27 01:10:33;;;;;;;29.70;6.77;;;;;;;;;;5047671;28;20132;-64
2024/01/27 01:12:59;;;;;;;36.37;7.80;;;;;;;;;;5048029;28;20052;-64
2024/01/27 01:15:25;;;;;;;18.67;5.37;;;;;;;;;;5048703;28;20634;-64
2024/01/27 01:17:51;;;;;;;24.33;5.27;;;;;;;;;;5047792;28;20052;-64
2024/01/27 01:20:17;;;;;;;30.70;6.47;;;;;;;;;;5049306;28;20053;-64
2024/01/27 01:22:43;;;;;;;29.60;5.07;;;;;;;;;;5052038;28;20041;-64
2024/01/27 01:25:09;;;;;;;33.17;5.60;;;;;;;;;;5051686;28;20033;-64
2024/01/27 01:27:35;;;;;;;17.27;5.63;;;;;;;;;;5051389;28;20051;-64
2024/01/27 01:30:01;;;;;;;31.23;6.00;;;;;;;;;;5050834;28;20677;-64
2024/01/27 01:32:27;;;;;;;30.17;6.23;;;;;;;;;;5051652;28;20275;-64
2024/01/27 01:34:53;;;;;;;37.60;7.63;;;;;;;;;;5051396;28;20048;-65
2024/01/27 01:37:19;;;;;;;23.30;4.83;;;;;;;;;;5051185;28;20049;-64
2024/01/27 01:39:45;;;;;;;23.77;6.07;;;;;;;;;;5051173;28;20139;-64
2024/01/27 01:42:11;;;;;;;31.60;6.37;;;;;;;;;;5050738;28;20132;-64
2024/01/27 01:44:37;;;;;;;24.10;5.03;;;;;;;;;;5051301;28;20155;-64
2024/01/27 01:47:03;;;;;;;34.67;5.23;;;;;;;;;;5050923;28;20474;-64
2024/01/27 01:49:29;;;;;;;20.47;5.50;;;;;;;;;;5051671;28;20044;-64
2024/01/27 01:51:55;;;;;;;27.73;6.07;;;;;;;;;;5050679;28;20513;-64
2024/01/27 01:54:22;;;;;;;25.83;4.93;;;;;;;;;;5050480;28;20499;-65
2024/01/27 01:56:48;;;;;;;20.60;5.53;;;;;;;;;;5050918;28;20357;-65
2024/01/27 01:59:14;;;;;;;26.87;6.17;;;;;;;;;;5050657;28;20467;-64
2024/01/27 02:01:40;;;;;;;23.30;4.43;;;;;;;;;;5050762;28;20330;-64
2024/01/27 02:04:06;;;;;;;30.90;5.90;;;;;;;;;;5051321;28;20129;-64
2024/01/27 02:06:32;;;;;;;28.27;4.83;;;;;;;;;;5051056;28;20415;-64
2024/01/27 02:08:58;;;;;;;32.63;5.90;;;;;;;;;;5050588;28;20529;-64
2024/01/27 02:11:24;;;;;;;30.47;5.63;;;;;;;;;;5050506;28;20275;-64
2024/01/27 02:13:50;;;;;;;27.20;5.77;;;;;;;;;;5044298;28;20046;-64
2024/01/27 02:16:17;;;;;;;23.50;5.27;;;;;;;;;;5030459;28;20314;-64
2024/01/27 02:18:43;;;;;;;34.77;6.17;;;;;;;;;;5030705;28;20056;-64
2024/01/27 02:21:09;;;;;;;26.60;5.73;;;;;;;;;;5030259;28;20080;-64
2024/01/27 02:23:35;;;;;;;32.20;5.73;;;;;;;;;;5030551;28;20081;-64
2024/01/27 02:26:01;;;;;;;29.23;5.43;;;;;;;;;;5030326;28;20067;-64
2024/01/27 02:28:31;;;;;;;27.37;5.50;;;;;;;;;;5030591;28;20045;-64
2024/01/27 02:30:57;;;;;;;25.50;5.97;;;;;;;;;;5030220;28;20053;-64
2024/01/27 02:33:23;;;;;;;25.00;5.50;;;;;;;;;;5029925;28;20184;-64
2024/01/27 02:35:50;;;;;;;28.90;5.23;;;;;;;;;;5030178;28;20163;-64
2024/01/27 02:38:16;;;;;;;29.27;4.80;;;;;;;;;;5029862;28;20050;-65
2024/01/27 02:40:42;;;;;;;32.23;5.37;;;;;;;;;;5029967;28;20308;-64
2024/01/27 02:43:08;;;;;;;22.03;6.30;;;;;;;;;;5030453;28;20045;-65
2024/01/27 02:45:34;;;;;;;31.43;5.57;;;;;;;;;;5030058;28;20042;-64
2024/01/27 02:48:00;;;;;;;23.23;4.93;;;;;;;;;;5029912;28;20570;-64
2024/01/27 02:50:26;;;;;;;35.57;6.23;;;;;;;;;;5030143;28;20046;-64
2024/01/27 02:52:52;;;;;;;24.77;5.63;;;;;;;;;;5029680;28;20403;-64
2024/01/27 02:55:18;;;;;;;27.90;6.27;;;;;;;;;;5029580;28;20041;-64
2024/01/27 02:57:44;;;;;;;23.47;5.40;;;;;;;;;;5029964;28;20056;-64
2024/01/27 03:00:10;;;;;;;32.13;7.03;;;;;;;;;;5029485;28;20715;-64
2024/01/27 03:02:36;;;;;;;28.13;4.93;;;;;;;;;;5029957;28;20042;-64
2024/01/27 03:05:02;;;;;;;31.90;5.57;;;;;;;;;;5029835;28;20121;-64
2024/01/27 03:07:28;;;;;;;34.73;5.90;;;;;;;;;;5029103;28;20046;-64
2024/01/27 03:09:54;;;;;;;41.90;7.13;;;;;;;;;;5029649;28;20037;-65
2024/01/27 03:12:22;;;;;;;25.87;6.40;;;;;;;;;;5029435;28;20095;-64
2024/01/27 03:14:49;;;;;;;28.37;5.77;;;;;;;;;;5029669;28;20064;-64
2024/01/27 03:17:15;;;;;;;30.37;5.83;;;;;;;;;;5029602;28;20097;-64
2024/01/27 03:19:41;;;;;;;27.87;5.40;;;;;;;;;;5029157;28;20084;-64
2024/01/27 03:22:07;;;;;;;27.30;6.57;;;;;;;;;;5029226;28;20455;-64
2024/01/27 03:24:33;;;;;;;22.07;5.27;;;;;;;;;;5029394;28;20132;-64
2024/01/27 03:26:59;;;;;;;21.17;6.23;;;;;;;;;;5029548;28;20136;-64
2024/01/27 03:29:25;;;;;;;30.87;5.63;;;;;;;;;;5028686;28;20091;-64
2024/01/27 03:31:51;;;;;;;29.20;4.90;;;;;;;;;;5029116;28;20052;-64
2024/01/27 03:34:19;;;;;;;20.97;5.27;;;;;;;;;;5029608;28;20303;-65
2024/01/27 03:36:48;;;;;;;24.80;5.07;;;;;;;;;;5029097;28;20053;-64
2024/01/27 03:39:14;;;;;;;25.67;5.33;;;;;;;;;;5029188;28;20037;-64
2024/01/27 03:41:40;;;;;;;34.63;5.30;;;;;;;;;;5029177;28;20110;-64
2024/01/27 03:44:06;;;;;;;29.80;5.97;;;;;;;;;;5037837;28;20037;-64
2024/01/27 03:46:32;;;;;;;23.50;5.53;;;;;;;;;;5047810;28;20053;-65
2024/01/27 03:48:58;;;;;;;27.80;5.20;;;;;;;;;;5047902;28;20115;-64
2024/01/27 03:51:25;;;;;;;29.50;6.33;;;;;;;;;;5048785;28;20055;-64
2024/01/27 03:53:51;;;;;;;25.03;5.37;;;;;;;;;;5048091;28;20045;-64
2024/01/27 03:56:17;;;;;;;31.67;5.73;;;;;;;;;;5047783;28;20284;-64
2024/01/27 03:58:43;;;;;;;32.47;5.30;;;;;;;;;;5048717;28;20411;-64
2024/01/27 04:01:09;;;;;;;27.30;5.10;;;;;;;;;;5048865;28;20041;-65
2024/01/27 04:03:35;;;;;;;34.97;6.90;;;;;;;;;;5048715;28;20055;-64
2024/01/27 04:06:02;;;;;;;35.30;6.40;;;;;;;;;;5048828;28;20370;-64
2024/01/27 04:08:28;;;;;;;26.53;6.40;;;;;;;;;;5048789;28;20049;-64
2024/01/27 04:10:55;;;;;;;34.13;5.17;;;;;;;;;;5048847;28;20071;-64
2024/01/27 04:13:21;;;;;;;40.53;5.33;;;;;;;;;;5048226;28;20371;-64
2024/01/27 04:15:47;;;;;;;29.27;5.73;;;;;;;;;;5048507;28;20124;-65
2024/01/27 04:18:13;;;;;;;26.20;6.30;;;;;;;;;;5048500;28;20102;-64
2024/01/27 04:20:39;;;;;;;31.37;7.53;;;;;;;;;;5048238;28;20045;-65
2024/01/27 04:23:05;;;;;;;32.23;6.50;;;;;;;;;;5048686;28;20045;-64
2024/01/27 04:25:31;;;;;;;27.63;6.27;;;;;;;;;;5048591;28;20886;-65
2024/01/27 04:27:57;;;;;;;27.73;5.87;;;;;;;;;;5048179;28;20414;-64
2024/01/27 04:30:23;;;;;;;30.23;5.63;;;;;;;;;;5048573;28;20164;-64
2024/01/27 04:32:49;;;;;;;34.90;7.77;;;;;;;;;;5048704;28;20038;-64
2024/01/27 04:35:16;;;;;;;31.07;6.27;;;;;;;;;;5048145;28;20158;-65
2024/01/27 04:37:44;;;;;;;36.83;6.80;;;;;;;;;;5048318;28;20284;-64
2024/01/27 04:40:10;;;;;;;49.67;8.67;;;;;;;;;;5048157;28;20315;-65
2024/01/27 04:42:38;;;;;;;22.17;5.40;;;;;;;;;;5048270;28;20052;-65
2024/01/27 04:45:05;;;;;;;36.30;7.27;;;;;;;;;;5048199;28;20055;-64
2024/01/27 04:47:31;;;;;;;31.60;5.87;;;;;;;;;;5048038;28;20057;-64
2024/01/27 04:49:58;;;;;;;39.90;7.40;;;;;;;;;;5047887;28;20056;-64
2024/01/27 04:52:24;;;;;;;31.20;7.53;;;;;;;;;;5048397;28;20077;-64
2024/01/27 04:54:50;;;;;;;35.00;6.30;;;;;;;;;;5048686;28;20295;-65
2024/01/27 04:57:16;;;;;;;30.03;7.10;;;;;;;;;;5052108;28;20055;-64
2024/01/27 04:59:42;;;;;;;35.47;7.13;;;;;;;;;;5052139;28;20068;-65
2024/01/27 05:02:08;;;;;;;37.10;6.90;;;;;;;;;;5051284;28;20785;-65
2024/01/27 05:04:34;;;;;;;26.47;6.40;;;;;;;;;;5051983;28;20036;-65
2024/01/27 05:07:00;;;;;;;30.60;7.50;;;;;;;;;;5050690;28;20036;-65
2024/01/27 05:09:26;;;;;;;26.27;6.27;;;;;;;;;;5051949;28;20049;-64
2024/01/27 05:11:53;;;;;;;38.33;7.97;;;;;;;;;;5051513;28;20090;-64
2024/01/27 05:14:19;;;;;;;28.90;7.27;;;;;;;;;;5051801;28;20762;-65
2024/01/27 05:16:45;;;;;;;33.33;7.73;;;;;;;;;;5052029;28;20318;-64
2024/01/27 05:19:11;;;;;;;33.93;7.73;;;;;;;;;;5051482;28;20156;-64
2024/01/27 05:21:38;;;;;;;32.20;8.47;;;;;;;;;;5051458;28;20049;-64
2024/01/27 05:24:04;;;;;;;36.13;8.97;;;;;;;;;;5051989;28;20151;-64
2024/01/27 05:26:30;;;;;;;34.37;9.73;;;;;;;;;;5051556;28;20779;-64
2024/01/27 05:28:57;;;;;;;33.13;8.20;;;;;;;;;;5051348;28;20279;-65
2024/01/27 05:31:23;;;;;;;32.87;8.23;;;;;;;;;;5051407;28;20832;-64
2024/01/27 05:33:49;;;;;;;32.43;7.90;;;;;;;;;;5051240;28;20887;-65
2024/01/27 05:36:16;;;;;;;35.60;8.77;;;;;;;;;;5051410;28;20363;-65
2024/01/27 05:38:42;;;;;;;44.00;9.43;;;;;;;;;;5051487;28;20684;-64
2024/01/27 05:41:08;;;;;;;47.47;9.30;;;;;;;;;;5051002;28;20045;-64
2024/01/27 05:43:34;;;;;;;25.47;8.50;;;;;;;;;;5051310;28;20052;-64
2024/01/27 05:46:00;;;;;;;37.50;9.63;;;;;;;;;;5051018;28;20061;-64
2024/01/27 05:48:26;;;;;;;29.00;7.93;;;;;;;;;;5051075;28;20292;-64
2024/01/27 05:50:56;;;;;;;36.13;10.90;;;;;;;;;;5050905;28;20045;-64
2024/01/27 05:53:22;;;;;;;29.20;8.63;;;;;;;;;;5050775;28;20491;-65
2024/01/27 05:55:48;;;;;;;33.53;9.03;;;;;;;;;;5051307;28;20095;-64
2024/01/27 05:58:15;;;;;;;33.97;9.97;;;;;;;;;;5050783;28;20279;-64
2024/01/27 06:00:43;;;;;;;38.47;11.33;;;;;;;;;;5050187;28;20142;-64
2024/01/27 06:03:09;;;;;;;38.80;11.17;;;;;;;;;;5050784;28;20053;-64
2024/01/27 06:05:35;;;;;;;40.20;12.00;;;;;;;;;;5050886;28;20041;-64
2024/01/27 06:08:01;;;;;;;37.80;10.17;;;;;;;;;;5049491;28;20063;-64
2024/01/27 06:10:27;;;;;;;40.43;11.23;;;;;;;;;;5049405;28;20403;-64
2024/01/27 06:12:53;;;;;;;30.40;10.20;;;;;;;;;;5050446;28;20055;-65
2024/01/27 06:15:19;;;;;;;48.20;12.03;;;;;;;;;;5050622;28;20041;-64
2024/01/27 06:17:45;;;;;;;34.83;11.03;;;;;;;;;;5050870;28;20049;-64
2024/01/27 06:20:12;;;;;;;32.43;11.50;;;;;;;;;;5050931;28;20334;-64
2024/01/27 06:22:38;;;;;;;40.33;12.63;;;;;;;;;;5050762;28;20566;-64
2024/01/27 06:25:04;;;;;;;40.77;12.73;;;;;;;;;;5050389;28;20363;-64
2024/01/27 06:27:30;;;;;;;39.93;11.67;;;;;;;;;;5050220;28;20283;-64
2024/01/27 06:29:56;;;;;;;47.33;11.57;;;;;;;;;;5050269;28;20350;-64
2024/01/27 06:32:22;;;;;;;33.10;11.90;;;;;;;;;;5050162;28;20899;-64
2024/01/27 06:34:48;;;;;;;47.93;14.50;;;;;;;;;;5050441;28;20048;-64
2024/01/27 06:37:14;;;;;;;33.37;11.33;;;;;;;;;;5049565;28;20045;-64
2024/01/27 06:39:40;;;;;;;49.30;13.50;;;;;;;;;;5050223;28;20052;-64
2024/01/27 06:42:06;;;;;;;40.47;11.90;;;;;;;;;;5050136;28;20276;-64
2024/01/27 06:44:32;;;;;;;46.00;12.47;;;;;;;;;;5049737;28;20056;-64
2024/01/27 06:46:58;;;;;;;46.60;13.43;;;;;;;;;;5049637;28;20287;-64
2024/01/27 06:49:24;;;;;;;44.20;13.20;;;;;;;;;;5049775;28;20045;-64
2024/01/27 06:51:50;;;;;;;50.00;13.77;;;;;;;;;;5049726;28;20040;-64
2024/01/27 06:54:16;;;;;;;43.30;13.40;;;;;;;;;;5050091;28;20103;-64
2024/01/27 06:56:42;;;;;;;41.70;12.57;;;;;;;;;;5049439;28;20853;-64
2024/01/27 06:59:08;;;;;;;38.50;12.63;;;;;;;;;;5049532;28;20287;-64
2024/01/27 07:01:34;;;;;;;44.97;13.60;;;;;;;;;;5049808;28;20037;-64
2024/01/27 07:04:00;;;;;;;50.50;15.57;;;;;;;;;;5049869;28;20457;-64
2024/01/27 07:06:26;;;;;;;48.77;13.77;;;;;;;;;;5049572;28;21077;-64
2024/01/27 07:08:52;;;;;;;57.90;15.60;;;;;;;;;;5048525;28;20292;-64
2024/01/27 07:11:18;;;;;;;52.03;16.03;;;;;;;;;;5049829;28;20091;-64
2024/01/27 07:13:44;;;;;;;41.37;14.57;;;;;;;;;;5048963;28;20283;-64
2024/01/27 07:16:10;;;;;;;51.10;17.67;;;;;;;;;;5049475;28;20484;-64
2024/01/27 07:18:36;;;;;;;53.50;16.20;;;;;;;;;;5049264;28;20499;-64
2024/01/27 07:21:02;;;;;;;52.27;16.20;;;;;;;;;;5049154;28;20361;-64
2024/01/27 07:23:29;;;;;;;53.90;17.13;;;;;;;;;;5049639;28;20918;-64
2024/01/27 07:25:55;;;;;;;54.77;20.10;;;;;;;;;;5049144;28;20345;-64
2024/01/27 07:28:21;;;;;;;65.57;21.77;;;;;;;;;;5048857;28;20291;-64
2024/01/27 07:30:47;;;;;;;65.37;21.97;;;;;;;;;;5049344;28;20323;-64
2024/01/27 07:33:13;;;;;;;72.10;25.30;;;;;;;;;;5049287;28;20774;-64
2024/01/27 07:35:39;;;;;;;67.47;25.23;;;;;;;;;;5048358;28;20059;-64
2024/01/27 07:38:05;;;;;;;70.63;25.40;;;;;;;;;;5048877;28;20280;-64
2024/01/27 07:40:31;;;;;;;69.83;28.47;;;;;;;;;;5049161;28;20437;-64
2024/01/27 07:42:58;;;;;;;74.13;26.40;;;;;;;;;;5048787;28;20280;-64
2024/01/27 07:45:24;;;;;;;62.10;25.37;;;;;;;;;;5048250;28;20283;-64
2024/01/27 07:47:50;;;;;;;65.23;25.53;;;;;;;;;;5047400;28;20295;-64
2024/01/27 07:50:16;;;;;;;61.60;24.83;;;;;;;;;;5048320;28;20654;-64
2024/01/27 07:52:42;;;;;;;77.00;28.90;;;;;;;;;;5048806;28;20057;-64
2024/01/27 07:55:08;;;;;;;70.47;25.77;;;;;;;;;;5048976;28;20288;-64
2024/01/27 07:57:35;;;;;;;65.00;24.13;;;;;;;;;;5048386;28;20063;-64
2024/01/27 08:00:01;;;;;;;64.93;26.63;;;;;;;;;;5048393;28;20315;-64
2024/01/27 08:02:27;;;;;;;68.43;25.80;;;;;;;;;;5048917;28;20287;-64
2024/01/27 08:04:53;;;;;;;70.50;26.37;;;;;;;;;;5048376;28;20634;-64
2024/01/27 08:07:19;;;;;;;68.87;27.27;;;;;;;;;;5048606;28;20052;-64
2024/01/27 08:09:45;;;;;;;58.60;23.10;;;;;;;;;;5048882;28;20283;-64
2024/01/27 08:12:11;;;;;;;64.53;25.10;;;;;;;;;;5047697;28;20045;-64
2024/01/27 08:14:37;;;;;;;49.97;22.33;;;;;;;;;;5048303;28;20653;-64
2024/01/27 08:17:04;;;;;;;61.23;26.27;;;;;;;;;;5048390;28;20523;-64
2024/01/27 08:19:30;;;;;;;52.20;23.17;;;;;;;;;;5048188;28;20314;-64
2024/01/27 08:21:56;;;;;;;69.50;27.77;;;;;;;;;;5048427;28;20299;-64
2024/01/27 08:24:24;;;;;;;57.00;24.87;;;;;;;;;;5048154;28;20287;-64
2024/01/27 08:26:50;;;;;;;65.90;24.37;;;;;;;;;;5047113;28;20374;-64
2024/01/27 08:29:16;;;;;;;66.10;27.33;;;;;;;;;;5048154;28;20314;-64
2024/01/27 08:31:42;;;;;;;62.40;25.53;;;;;;;;;;5052574;28;20702;-64
2024/01/27 08:34:08;;;;;;;50.03;23.80;;;;;;;;;;5051720;28;20287;-64
2024/01/27 08:36:35;;;;;;;54.27;23.73;;;;;;;;;;5051258;28;20284;-64
2024/01/27 08:39:01;;;;;;;63.63;24.73;;;;;;;;;;5052311;28;20040;-64
2024/01/27 08:41:27;;;;;;;63.77;23.57;;;;;;;;;;5052123;28;20315;-64
2024/01/27 08:43:53;;;;;;;69.27;27.77;;;;;;;;;;5049125;28;20283;-65
2024/01/27 08:46:21;;;;;;;59.80;22.97;;;;;;;;;;5050715;28;20063;-64
2024/01/27 08:48:47;;;;;;;56.87;23.17;;;;;;;;;;5050182;28;20290;-64
2024/01/27 08:51:15;;;;;;;52.60;24.73;;;;;;;;;;5051150;28;20057;-64
2024/01/27 08:53:42;;;;;;;60.83;28.00;;;;;;;;;;5052224;28;20537;-64
2024/01/27 08:56:08;;;;;;;53.73;25.77;;;;;;;;;;5050841;28;20514;-64
2024/01/27 08:58:34;;;;;;;61.17;23.27;;;;;;;;;;5051556;28;20715;-64
2024/01/27 09:01:05;;;;;;;56.53;25.93;;;;;;;;;;5050315;28;20048;-64
2024/01/27 09:03:31;;;;;;;50.53;24.27;;;;;;;;;;5050822;28;20041;-64
2024/01/27 09:05:58;;;;;;;59.10;23.07;;;;;;;;;;5051161;28;20131;-64
2024/01/27 09:08:24;;;;;;;48.37;21.13;;;;;;;;;;5051010;28;20048;-64
2024/01/27 09:10:50;;;;;;;53.90;22.47;;;;;;;;;;5051323;28;20045;-65
2024/01/27 09:13:16;;;;;;;45.20;21.63;;;;;;;;;;5051467;28;20398;-64
2024/01/27 09:15:43;;;;;;;51.53;22.77;;;;;;;;;;5050596;28;20041;-64
2024/01/27 09:18:09;;;;;;;49.97;21.10;;;;;;;;;;5051129;28;20464;-64
2024/01/27 09:20:35;;;;;;;53.30;22.63;;;;;;;;;;5050225;28;20138;-65
2024/01/27 09:23:01;;;;;;;52.20;22.40;;;;;;;;;;5050385;28;20079;-65
2024/01/27 09:25:27;;;;;;;44.63;20.77;;;;;;;;;;5049965;28;20601;-64
2024/01/27 09:27:54;;;;;;;49.77;21.77;;;;;;;;;;5051332;28;20052;-65
2024/01/27 09:30:20;;;;;;;46.60;20.80;;;;;;;;;;5050418;28;20053;-65
2024/01/27 09:32:47;;;;;;;48.13;22.10;;;;;;;;;;5050774;28;20587;-64
2024/01/27 09:35:13;;;;;;;49.17;22.20;;;;;;;;;;5050838;28;20045;-64
2024/01/27 09:37:39;;;;;;;45.73;22.47;;;;;;;;;;5051210;28;20427;-64
2024/01/27 09:40:05;;;;;;;35.47;18.63;;;;;;;;;;5050420;28;20396;-64
2024/01/27 09:42:34;;;;;;;39.10;19.07;;;;;;;;;;5049115;28;20087;-64
2024/01/27 09:45:02;;;;;;;42.57;19.00;;;;;;;;;;5050519;28;20613;-65
2024/01/27 09:47:28;;;;;;;32.87;16.27;;;;;;;;;;5050138;28;20109;-65
2024/01/27 09:49:55;;;;;;;42.13;16.10;;;;;;;;;;5050382;28;20642;-66
2024/01/27 09:52:21;;;;;;;34.80;16.03;;;;;;;;;;5050677;28;20499;-65
2024/01/27 09:54:48;;;;;;;27.67;14.50;;;;;;;;;;5050054;28;20048;-65
2024/01/27 09:57:14;;;;;;;46.37;16.10;;;;;;;;;;5046598;28;20518;-65
2024/01/27 09:59:44;;;;;;;38.90;15.70;;;;;;;;;;5050367;28;20052;-65
2024/01/27 10:02:12;;;;;;;24.20;13.53;;;;;;;;;;5049919;28;20055;-65
2024/01/27 10:04:39;;;;;;;30.10;13.23;;;;;;;;;;5050486;28;20056;-66
2024/01/27 10:07:05;;;;;;;30.33;9.43;;;;;;;;;;5050606;28;20106;-63
2024/01/27 10:09:31;;;;;;;22.73;7.87;;;;;;;;;;5050376;28;20037;-63
2024/01/27 10:11:57;;;;;;;19.93;8.17;;;;;;;;;;5049048;28;20118;-64
2024/01/27 10:14:23;;;;;;;17.77;6.97;;;;;;;;;;5056783;28;20492;-63
2024/01/27 10:16:49;;;;;;;16.07;7.07;;;;;;;;;;5049164;28;20667;-64
2024/01/27 10:19:19;;;;;;;19.20;5.83;;;;;;;;;;5050495;28;20060;-64
2024/01/27 10:21:46;;;;;;;23.87;7.37;;;;;;;;;;5050047;28;20094;-64
2024/01/27 10:24:12;;;;;;;19.30;6.37;;;;;;;;;;5050027;28;20045;-63
2024/01/27 10:26:38;;;;;;;12.33;5.23;;;;;;;;;;5050012;28;20045;-64
2024/01/27 10:29:04;;;;;;;18.33;5.73;;;;;;;;;;5050566;28;20033;-64
2024/01/27 10:31:31;;;;;;;23.00;7.03;;;;;;;;;;5066567;28;20105;-63
2024/01/27 10:33:57;;;;;;;15.33;5.90;;;;;;;;;;5050189;28;20440;-63
2024/01/27 10:36:24;;;;;;;18.47;5.37;;;;;;;;;;5049326;28;20041;-63
2024/01/27 10:38:50;;;;;;;23.73;6.43;;;;;;;;;;5050206;28;20045;-63
2024/01/27 10:41:23;;;;;;;23.13;6.10;;;;;;;;;;5049512;28;20045;-64
2024/01/27 10:43:52;;;;;;;14.88;6.70;;;;;;;;;;5049577;28;20149;-65
2024/01/27 10:46:20;;;;;;;21.27;5.93;;;;;;;;;;5048945;28;20503;-66
2024/01/27 10:48:47;;;;;;;19.70;6.77;;;;;;;;;;5051174;28;20049;-64
2024/01/27 10:51:16;;;;;;;24.20;5.80;;;;;;;;;;5050036;28;20075;-63
2024/01/27 10:53:43;;;;;;;16.93;4.90;;;;;;;;;;5048269;28;20044;-63
2024/01/27 10:56:10;;;;;;;15.57;5.40;;;;;;;;;;5049348;28;20056;-64
2024/01/27 10:58:40;;;;;;;17.80;5.37;;;;;;;;;;5049293;28;20041;-63
2024/01/27 11:01:10;;;;;;;11.60;5.87;;;;;;;;;;5047536;28;20053;-63
2024/01/27 11:03:39;;;;;;;18.73;5.47;;;;;;;;;;5047131;28;20053;-63
2024/01/27 11:06:06;;;;;;;20.13;5.77;;;;;;;;;;5047556;28;20049;-64
2024/01/27 11:08:32;;;;;;;20.53;5.37;;;;;;;;;;5048540;28;20107;-63
2024/01/27 11:10:58;;;;;;;16.77;6.00;;;;;;;;;;5046935;28;20140;-63
2024/01/27 11:13:26;;;;;;;20.30;6.50;;;;;;;;;;5046370;28;20053;-63
2024/01/27 11:15:53;;;;;;;17.30;4.80;;;;;;;;;;5049425;28;20076;-64
2024/01/27 11:18:19;;;;;;;20.83;6.43;;;;;;;;;;5049087;28;20450;-64
2024/01/27 11:20:45;;;;;;;18.63;5.27;;;;;;;;;;5049538;28;20091;-64
2024/01/27 11:23:16;;;;;;;12.20;4.20;;;;;;;;;;5047676;28;20068;-63
2024/01/27 11:25:42;;;;;;;18.87;5.23;;;;;;;;;;5048321;28;20092;-64
2024/01/27 11:28:15;;;;;;;16.70;5.83;;;;;;;;;;5047188;28;20036;-64
2024/01/27 11:30:47;;;;;;;17.13;5.50;;;;;;;;;;5048042;28;20041;-64
2024/01/27 11:33:13;;;;;;;17.17;4.23;;;;;;;;;;5046181;28;20047;-64
2024/01/27 11:35:39;;;;;;;17.87;4.97;;;;;;;;;;5028242;28;20045;-64
2024/01/27 11:38:05;;;;;;;19.80;4.33;;;;;;;;;;5035845;28;20045;-64
2024/01/27 11:40:32;;;;;;;21.63;4.80;;;;;;;;;;5029699;28;20059;-64
2024/01/27 11:42:59;;;;;;;17.43;5.63;;;;;;;;;;5028884;28;20053;-64
2024/01/27 11:45:25;;;;;;;17.30;4.10;;;;;;;;;;5039673;28;20542;-65
2024/01/27 11:47:51;;;;;;;20.33;6.67;;;;;;;;;;5046220;28;20064;-64
2024/01/27 11:50:18;;;;;;;15.43;4.80;;;;;;;;;;5047989;28;20076;-64
2024/01/27 11:52:44;;;;;;;18.83;5.07;;;;;;;;;;5048252;28;20044;-64
2024/01/27 11:55:11;;;;;;;18.50;5.63;;;;;;;;;;5055309;28;20676;-64
2024/01/27 11:57:37;;;;;;;19.43;5.33;;;;;;;;;;5054502;28;20045;-65
2024/01/27 12:00:03;;;;;;;18.03;5.03;;;;;;;;;;5047262;28;20590;-64
2024/01/27 12:02:30;;;;;;;16.10;4.83;;;;;;;;;;5032676;28;20079;-64
2024/01/27 12:04:56;;;;;;;13.77;5.17;;;;;;;;;;5028209;28;20049;-64
2024/01/27 12:07:22;;;;;;;14.97;5.00;;;;;;;;;;5028927;28;20148;-65
2024/01/27 12:09:51;;;;;;;20.63;5.10;;;;;;;;;;5041903;28;20091;-64
2024/01/27 12:12:17;;;;;;;19.00;5.33;;;;;;;;;;5051434;28;20682;-64
2024/01/27 12:14:50;;;;;;;15.67;4.50;;;;;;;;;;5035715;28;20053;-64
2024/01/27 12:17:16;;;;;;;15.75;4.90;;;;;;;;;;5048104;28;20037;-64
2024/01/27 12:19:53;;;;;;;13.07;4.77;;;;;;;;;;5048145;28;20041;-64
2024/01/27 12:22:23;;;;;;;14.87;4.20;;;;;;;;;;5028411;28;20523;-64
2024/01/27 12:24:49;;;;;;;20.30;4.57;;;;;;;;;;5044287;28;20045;-64
2024/01/27 12:27:17;;;;;;;12.50;4.80;;;;;;;;;;5048173;28;20124;-64
2024/01/27 12:29:43;;;;;;;18.10;5.50;;;;;;;;;;5054536;28;20044;-64
2024/01/27 12:32:09;;;;;;;15.13;4.37;;;;;;;;;;5041325;28;20049;-64
2024/01/27 12:34:40;;;;;;;21.23;4.33;;;;;;;;;;5045758;28;20087;-64
2024/01/27 12:37:08;;;;;;;18.27;4.57;;;;;;;;;;5047079;28;20099;-64
2024/01/27 12:39:34;;;;;;;16.67;4.47;;;;;;;;;;5047425;28;20052;-64
2024/01/27 12:42:00;;;;;;;20.43;5.10;;;;;;;;;;5047890;28;20072;-64
2024/01/27 12:44:26;;;;;;;20.53;5.33;;;;;;;;;;5047134;28;20107;-64
2024/01/27 12:46:52;;;;;;;22.13;5.90;;;;;;;;;;5048345;28;20060;-64
2024/01/27 12:49:18;;;;;;;22.90;5.37;;;;;;;;;;5047331;28;20049;-64
2024/01/27 12:51:45;;;;;;;18.57;5.63;;;;;;;;;;5047233;28;20065;-63
2024/01/27 12:54:11;;;;;;;16.07;5.40;;;;;;;;;;5047420;28;20055;-64
2024/01/27 12:56:38;;;;;;;15.33;4.80;;;;;;;;;;5046740;28;20514;-63
2024/01/27 12:59:06;;;;;;;17.13;4.90;;;;;;;;;;5046817;28;20094;-63
2024/01/27 13:01:32;;;;;;;12.77;4.80;;;;;;;;;;5046889;28;20048;-64
2024/01/27 13:03:58;;;;;;;18.50;4.97;;;;;;;;;;5047581;28;20095;-64
2024/01/27 13:06:24;;;;;;;15.43;4.47;;;;;;;;;;5046479;28;20041;-63
2024/01/27 13:08:51;;;;;;;15.40;4.87;;;;;;;;;;5045556;28;20045;-63
2024/01/27 13:11:17;;;;;;;12.10;4.83;;;;;;;;;;5047152;28;20041;-63
2024/01/27 13:13:43;;;;;;;21.37;6.27;;;;;;;;;;5047908;28;20416;-63
2024/01/27 13:16:09;;;;;;;17.13;4.80;;;;;;;;;;5048761;28;20604;-64
2024/01/27 13:18:36;;;;;;;16.60;4.57;;;;;;;;;;5051841;28;20483;-64
2024/01/27 13:21:04;;;;;;;19.33;4.90;;;;;;;;;;5049865;28;20049;-64
2024/01/27 13:23:30;;;;;;;15.00;4.17;;;;;;;;;;5051516;28;20098;-64
2024/01/27 13:25:56;;;;;;;16.07;6.13;;;;;;;;;;5051620;28;20049;-64
2024/01/27 13:28:22;;;;;;;16.97;4.83;;;;;;;;;;5051046;28;20045;-64
2024/01/27 13:30:49;;;;;;;14.37;4.37;;;;;;;;;;5051242;28;20080;-64
2024/01/27 13:33:15;;;;;;;16.77;4.53;;;;;;;;;;5051281;28;20053;-64
2024/01/27 13:35:46;;;;;;;13.50;4.07;;;;;;;;;;5051656;28;20045;-64
2024/01/27 13:38:13;;;;;;;17.23;4.43;;;;;;;;;;5051599;28;20052;-64
2024/01/27 13:40:39;;;;;;;19.07;5.67;;;;;;;;;;5051099;28;20136;-63
2024/01/27 13:43:05;;;;;;;17.30;4.30;;;;;;;;;;5050605;28;20041;-64
2024/01/27 13:45:31;;;;;;;15.50;4.43;;;;;;;;;;5050959;28;20041;-64
2024/01/27 13:47:57;;;;;;;19.23;5.23;;;;;;;;;;5050909;28;20045;-63
2024/01/27 13:50:26;;;;;;;15.70;4.63;;;;;;;;;;5050913;28;20174;-63
2024/01/27 13:52:53;;;;;;;16.30;4.30;;;;;;;;;;5050756;28;20174;-63
2024/01/27 13:55:20;;;;;;;16.87;4.73;;;;;;;;;;5050617;28;20044;-63
2024/01/27 13:57:46;;;;;;;15.57;4.23;;;;;;;;;;5050946;28;20810;-64
2024/01/27 14:00:13;;;;;;;16.23;4.17;;;;;;;;;;5050745;28;20041;-63
2024/01/27 14:02:40;;;;;;;17.30;5.30;;;;;;;;;;5050259;28;20048;-63
2024/01/27 14:05:06;;;;;;;16.23;4.23;;;;;;;;;;5050797;28;20049;-63
2024/01/27 14:07:33;;;;;;;19.00;4.70;;;;;;;;;;5050923;28;20419;-63
2024/01/27 14:09:59;;;;;;;15.73;4.93;;;;;;;;;;5050248;28;20045;-63
2024/01/27 14:12:25;;;;;;;17.37;4.70;;;;;;;;;;5049441;28;20518;-63
2024/01/27 14:14:52;;;;;;;18.63;4.83;;;;;;;;;;5049840;28;20499;-63
2024/01/27 14:17:20;;;;;;;16.60;4.20;;;;;;;;;;5049829;28;20053;-63
2024/01/27 14:19:46;;;;;;;13.00;3.80;;;;;;;;;;5050519;28;20056;-63
2024/01/27 14:22:12;;;;;;;17.03;4.37;;;;;;;;;;5050729;28;20056;-63